Time;durP1;ratioP1;P1;durP2;ratioP2;P2;SDS_P1;SDS_P2;PMS_P1;PMS_P2;Temp;Humidity;BMP_temperature;BMP_pressure;BME280_temperature;BME280_humidity;BME280_pressure;Samples;Min_cycle;Max_cycle;Signal;HPM_P1;HPM_P2
2021/04/02 00:03:17;;;;;;;;;;;;;;;;;;;;;
2021/04/02 00:11:21;;;;;;;17.52;11.38;;;9.30;56.30;;;;;;5232892;23;20048;-93
2021/04/02 00:14:07;;;;;;;17.70;11.07;;;9.20;56.50;;;;;;4945365;29;20008;-95
2021/04/02 00:16:55;;;;;;;;;;;;;;;;;;;;;
2021/04/02 00:25:30;;;;;;;;;;;;;;;;;;;;;
2021/04/02 00:31:13;;;;;;;13.85;9.90;;;8.90;57.00;;;;;;5162238;23;20411;-95
2021/04/02 00:34:02;;;;;;;;;;;;;;;;;;;;;
2021/04/02 00:39:27;;;;;;;14.55;10.10;;;8.80;57.60;;;;;;4937876;29;20066;-95
2021/04/02 00:42:13;;;;;;;;;;;;;;;;;;;;;
2021/04/02 00:45:06;;;;;;;21.17;11.65;;;8.70;57.30;;;;;;4962099;29;20051;-96
2021/04/02 00:48:05;;;;;;;16.27;11.15;;;8.80;57.40;;;;;;4960969;29;20104;-96
2021/04/02 00:54:38;;;;;;;;;;;;;;;;;;;;;
2021/04/02 00:57:31;;;;;;;16.67;10.27;;;8.70;57.60;;;;;;4957756;29;20043;-96
2021/04/02 01:00:31;;;;;;;16.35;11.25;;;8.60;57.60;;;;;;4930068;29;20028;-96
2021/04/02 01:04:21;;;;;;;17.60;11.45;;;8.60;57.70;;;;;;4943811;29;20020;-96
2021/04/02 01:13:29;;;;;;;;;;;;;;;;;;;;;
2021/04/02 01:16:07;;;;;;;17.13;11.65;;;8.60;58.00;;;;;;4962527;29;20056;-96
2021/04/02 01:19:23;;;;;;;18.02;10.50;;;8.50;57.80;;;;;;4962011;29;20032;-96
2021/04/02 01:22:46;;;;;;;;;;;;;;;;;;;;;
2021/04/02 01:25:46;;;;;;;14.45;10.45;;;8.50;58.00;;;;;;4955731;29;20024;-95
2021/04/02 01:28:47;;;;;;;17.30;10.88;;;8.40;58.00;;;;;;4884422;29;20038;-96
2021/04/02 02:09:46;;;;;;;;;;;;;;;;;;;;;
2021/04/02 02:12:40;;;;;;;20.85;11.35;;;7.80;59.60;;;;;;4896096;29;20323;-95
2021/04/02 02:15:38;;;;;;;19.95;11.60;;;7.80;59.50;;;;;;4917963;29;20032;-95
2021/04/02 02:18:35;;;;;;;;;;;;;;;;;;;;;
2021/04/02 02:27:24;;;;;;;12.60;9.05;;;7.60;59.90;;;;;;4901516;29;20036;-96
2021/04/02 02:29:52;;;;;;;17.45;9.45;;;7.60;60.00;;;;;;4911923;29;20083;-95
2021/04/02 02:32:43;;;;;;;18.30;10.68;;;7.60;60.00;;;;;;4913664;29;20039;-94
2021/04/02 02:36:08;;;;;;;16.15;10.93;;;7.60;60.40;;;;;;4907566;29;20032;-96
2021/04/02 02:39:11;;;;;;;;;;;;;;;;;;;;;
2021/04/02 02:42:05;;;;;;;16.75;10.43;;;7.50;60.20;;;;;;4920053;29;20063;-96
2021/04/02 02:45:09;;;;;;;;;;;;;;;;;;;;;
2021/04/02 02:55:11;;;;;;;;;;;;;;;;;;;;;
2021/04/02 02:58:15;;;;;;;16.65;10.55;;;7.40;60.60;;;;;;4862329;29;20050;-96
2021/04/02 03:01:05;;;;;;;18.30;10.30;;;7.40;60.40;;;;;;4852093;29;20053;-96
2021/04/02 04:00:17;;;;;;;;;;;;;;;;;;;;;
2021/04/02 04:07:03;;;;;;;15.57;9.38;;;7.90;61.00;;;;;;4868365;29;20048;-96
2021/04/02 04:09:53;;;;;;;15.35;10.23;;;7.90;60.80;;;;;;4889220;29;20041;-96
2021/04/02 04:16:49;;;;;;;;;;;;;;;;;;;;;
2021/04/02 04:20:05;;;;;;;;;;;;;;;;;;;;;
2021/04/02 04:23:23;;;;;;;21.95;10.48;;;8.20;60.40;;;;;;4849604;29;20058;-95
2021/04/02 04:26:56;;;;;;;;;;;;;;;;;;;;;
2021/04/02 04:41:47;;;;;;;22.73;11.75;;;8.50;60.00;;;;;;5005187;23;20044;-95
2021/04/02 04:51:58;;;;;;;;;;;;;;;;;;;;;
2021/04/02 05:15:23;;;;;;;27.65;17.30;;;9.20;60.00;;;;;;4896888;29;20045;-96
2021/04/02 05:25:34;;;;;;;;;;;;;;;;;;;;;
2021/04/02 05:28:33;;;;;;;;;;;;;;;;;;;;;
2021/04/02 05:35:46;;;;;;;22.80;14.30;;;9.50;60.00;;;;;;4865035;29;20062;-96
2021/04/02 05:41:59;;;;;;;20.55;13.88;;;9.60;59.90;;;;;;4866728;29;20061;-96
2021/04/02 05:45:21;;;;;;;20.85;14.45;;;9.70;60.10;;;;;;4805116;29;20237;-95
2021/04/02 05:51:28;;;;;;;;;;;;;;;;;;;;;
2021/04/02 06:08:23;;;;;;;;;;;;;;;;;;;;;
2021/04/02 07:00:06;;;;;;;;;;;;;;;;;;;;;
2021/04/02 07:04:11;;;;;;;;;;;;;;;;;;;;;
2021/04/02 07:17:47;;;;;;;16.70;13.18;;;11.90;56.30;;;;;;4789064;29;20425;-95
2021/04/02 07:24:50;;;;;;;13.27;10.63;;;12.10;55.80;;;;;;4779928;30;20046;-95
2021/04/02 07:28:00;;;;;;;15.37;11.03;;;12.20;55.60;;;;;;4769891;30;20032;-93
2021/04/02 07:30:57;;;;;;;17.75;12.07;;;12.40;55.30;;;;;;4776084;30;20300;-92
2021/04/02 07:33:44;;;;;;;;;;;;;;;;;;;;;
2021/04/02 07:36:57;;;;;;;;;;;;;;;;;;;;;
2021/04/02 07:40:10;;;;;;;17.67;11.75;;;12.70;54.60;;;;;;4900893;29;20056;-95
2021/04/02 07:43:00;;;;;;;20.00;12.25;;;12.80;54.30;;;;;;4814190;29;20038;-95
2021/04/02 07:45:51;;;;;;;;;;;;;;;;;;;;;
2021/04/02 07:49:01;;;;;;;18.33;12.07;;;13.10;53.70;;;;;;4824218;29;20129;-96
2021/04/02 08:06:33;;;;;;;24.60;14.18;;;13.10;53.20;;;;;;6107661;22;6075881;-95
2021/04/02 08:15:57;;;;;;;21.65;14.85;;;12.70;54.10;;;;;;6183415;23;19920;-96
2021/04/02 08:18:51;;;;;;;17.35;12.57;;;12.80;54.00;;;;;;6244468;22;19999;-96
2021/04/02 08:21:47;;;;;;;;;;;;;;;;;;;;;
2021/04/02 08:24:25;;;;;;;;;;;;;;;;;;;;;
2021/04/02 08:26:59;;;;;;;20.13;13.93;;;13.10;53.50;;;;;;6327252;22;20026;-94
2021/04/02 08:32:35;;;;;;;20.52;12.60;;;13.10;53.50;;;;;;6324067;22;20006;-96
2021/04/02 08:39:01;;;;;;;17.25;11.85;;;13.30;53.30;;;;;;6286186;22;20007;-96
2021/04/02 08:41:55;;;;;;;17.83;11.60;;;13.30;52.60;;;;;;6329279;22;19995;-94
2021/04/02 08:44:37;;;;;;;16.70;11.65;;;13.40;53.20;;;;;;6331210;22;20022;-96
2021/04/02 08:47:12;;;;;;;15.82;12.82;;;13.50;53.00;;;;;;6325306;22;20010;-94
2021/04/02 08:50:25;;;;;;;;;;;;;;;;;;;;;
2021/04/02 08:53:25;;;;;;;14.48;10.60;;;13.60;52.60;;;;;;6314644;22;20397;-94
2021/04/02 08:56:18;;;;;;;;;;;;;;;;;;;;;
2021/04/02 08:58:58;;;;;;;15.35;12.35;;;13.90;52.70;;;;;;6327899;22;20041;-96
2021/04/02 09:01:27;;;;;;;15.90;11.23;;;14.10;52.20;;;;;;6315779;22;20003;-94
2021/04/02 09:04:21;;;;;;;17.05;12.13;;;14.30;52.40;;;;;;6270540;22;20006;-95
2021/04/02 09:10:13;;;;;;;14.48;9.88;;;14.70;51.80;;;;;;6268850;22;20032;-96
2021/04/02 09:25:23;;;;;;;15.98;12.23;;;15.60;49.80;;;;;;6324788;22;19948;-96
2021/04/02 09:41:01;;;;;;;13.85;9.15;;;16.20;48.90;;;;;;6170705;22;20016;-91
2021/04/02 09:47:08;;;;;;;12.88;8.77;;;16.30;49.00;;;;;;6359339;22;20024;-95
2021/04/02 09:49:58;;;;;;;12.63;10.82;;;16.40;48.30;;;;;;6366407;22;20062;-92
2021/04/02 09:53:16;;;;;;;;;;;;;;;;;;;;;
2021/04/02 09:56:27;;;;;;;14.90;11.27;;;16.20;48.40;;;;;;6384920;22;20017;-92
2021/04/02 10:03:11;;;;;;;;;;;;;;;;;;;;;
2021/04/02 10:10:11;;;;;;;12.82;9.90;;;15.70;51.60;;;;;;6156043;23;20012;-95
2021/04/02 10:13:42;;;;;;;;;;;;;;;;;;;;;
2021/04/02 10:17:26;;;;;;;12.38;9.50;;;15.70;52.10;;;;;;6185728;23;20051;-94
2021/04/02 10:19:47;;;;;;;13.88;9.00;;;15.60;52.40;;;;;;6230629;22;20430;-94
2021/04/02 10:22:22;;;;;;;12.57;9.85;;;15.60;52.60;;;;;;6319222;22;20040;-93
2021/04/02 10:25:24;;;;;;;;;;;;;;;;;;;;;
2021/04/02 10:34:56;;;;;;;;;;;;;;;;;;;;;
2021/04/02 10:38:16;;;;;;;10.75;8.68;;;15.90;52.60;;;;;;6320008;22;20030;-93
2021/04/02 10:40:50;;;;;;;12.82;10.50;;;15.90;53.00;;;;;;6326739;22;20368;-93
2021/04/02 10:43:47;;;;;;;10.23;8.68;;;15.80;53.00;;;;;;6295144;22;20034;-92
2021/04/02 10:51:01;;;;;;;;;;;;;;;;;;;;;
2021/04/02 10:54:00;;;;;;;;;;;;;;;;;;;;;
2021/04/02 10:57:09;;;;;;;;;;;;;;;;;;;;;
2021/04/02 11:06:37;;;;;;;19.13;13.90;;;15.30;56.50;;;;;;5990438;23;20059;-94
2021/04/02 11:09:12;;;;;;;18.48;14.23;;;15.20;56.90;;;;;;6084626;23;20087;-94
2021/04/02 11:15:13;;;;;;;22.45;13.73;;;14.60;60.80;;;;;;6288514;22;20069;-95
2021/04/02 11:17:43;;;;;;;16.77;12.65;;;14.30;60.00;;;;;;6284762;22;20007;-95
2021/04/02 11:20:18;;;;;;;17.30;12.90;;;14.20;60.30;;;;;;6282574;22;20007;-93
2021/04/02 11:22:47;;;;;;;17.02;12.30;;;14.00;61.20;;;;;;6279697;22;20084;-93
2021/04/02 11:25:15;;;;;;;17.65;13.15;;;13.90;62.00;;;;;;6278645;22;20057;-96
2021/04/02 11:27:45;;;;;;;20.35;14.57;;;13.80;62.50;;;;;;6259411;22;20069;-94
2021/04/02 11:33:20;;;;;;;17.95;14.18;;;13.60;63.70;;;;;;6364371;22;20018;-94
2021/04/02 11:35:50;;;;;;;16.55;13.20;;;13.50;67.60;;;;;;6339549;22;20029;-95
2021/04/02 11:38:34;;;;;;;;;;;;;;;;;;;;;
2021/04/02 11:41:11;;;;;;;17.60;13.07;;;13.40;66.20;;;;;;6376227;22;19998;-96
2021/04/02 11:43:38;;;;;;;21.65;15.25;;;13.30;66.70;;;;;;6343600;22;20090;-96
2021/04/02 11:49:40;;;;;;;25.38;16.83;;;13.20;70.70;;;;;;6359128;22;20043;-96
2021/04/02 11:52:13;;;;;;;18.42;15.20;;;13.00;69.00;;;;;;6351116;22;20003;-95
2021/04/02 11:54:45;;;;;;;18.73;15.25;;;13.00;69.70;;;;;;6350052;22;20025;-96
2021/04/02 11:57:12;;;;;;;20.40;15.15;;;12.90;70.70;;;;;;6341299;22;20056;-93
2021/04/02 11:59:38;;;;;;;19.90;13.02;;;12.80;70.70;;;;;;6338975;22;20002;-93
2021/04/02 12:02:04;;;;;;;18.55;14.68;;;12.80;70.80;;;;;;6311859;22;20002;-94
2021/04/02 12:04:33;;;;;;;20.55;15.75;;;12.80;71.00;;;;;;6310982;22;20478;-93
2021/04/02 12:07:07;;;;;;;24.42;16.85;;;12.80;72.10;;;;;;6311075;22;20029;-94
2021/04/02 12:09:41;;;;;;;23.33;16.30;;;12.70;72.60;;;;;;6313033;22;20003;-95
2021/04/02 12:12:12;;;;;;;18.65;15.70;;;12.60;72.30;;;;;;6314833;22;20055;-94
2021/04/02 12:14:45;;;;;;;23.48;16.63;;;12.50;73.20;;;;;;6317287;22;20026;-95
2021/04/02 12:17:14;;;;;;;25.10;17.27;;;12.40;74.90;;;;;;6316238;22;20003;-92
2021/04/02 12:19:41;;;;;;;22.90;16.80;;;12.40;73.80;;;;;;6342736;22;20007;-90
2021/04/02 12:22:11;;;;;;;24.27;16.50;;;12.30;73.70;;;;;;6344540;22;20070;-92
2021/04/02 12:25:22;;;;;;;21.95;17.90;;;12.30;74.00;;;;;;6349270;22;20010;-94
2021/04/02 12:27:50;;;;;;;22.40;16.17;;;12.20;75.00;;;;;;6322963;22;20406;-92
2021/04/02 12:30:19;;;;;;;22.95;15.77;;;12.20;74.10;;;;;;6315113;22;19999;-94
2021/04/02 12:32:48;;;;;;;21.30;15.25;;;12.20;74.10;;;;;;6340077;22;20006;-94
2021/04/02 12:35:18;;;;;;;19.25;14.10;;;12.30;73.80;;;;;;6317218;22;20021;-95
2021/04/02 12:37:47;;;;;;;21.95;15.45;;;12.30;73.50;;;;;;6322184;22;20007;-95
2021/04/02 12:40:25;;;;;;;20.65;15.02;;;12.40;73.60;;;;;;6317885;22;20026;-94
2021/04/02 12:43:07;;;;;;;21.17;17.13;;;12.40;73.60;;;;;;6333701;22;19994;-94
2021/04/02 12:45:41;;;;;;;22.60;16.63;;;12.40;73.80;;;;;;6361665;22;20015;-94
2021/04/02 12:48:20;;;;;;;23.35;16.63;;;12.40;73.50;;;;;;6361536;22;19998;-96
2021/04/02 12:51:02;;;;;;;23.85;16.35;;;12.30;73.80;;;;;;6330363;22;20055;-95
2021/04/02 12:53:51;;;;;;;20.30;16.73;;;12.30;75.80;;;;;;6325099;22;20055;-95
2021/04/02 12:56:32;;;;;;;20.75;15.80;;;12.20;74.30;;;;;;6295215;22;20032;-94
2021/04/02 12:59:16;;;;;;;20.60;16.20;;;12.20;75.30;;;;;;6324171;22;20003;-94
2021/04/02 13:01:56;;;;;;;;;;;;;;;;;;;;;
2021/04/02 13:04:52;;;;;;;19.67;15.25;;;12.10;75.00;;;;;;6360908;22;20002;-96
2021/04/02 13:07:30;;;;;;;27.20;18.35;;;12.10;77.00;;;;;;6337102;22;20002;-95
2021/04/02 13:10:38;;;;;;;25.20;18.30;;;12.00;76.60;;;;;;6331156;22;20024;-95
2021/04/02 13:21:25;;;;;;;25.35;17.90;;;11.70;76.50;;;;;;6329927;22;20041;-95
2021/04/02 13:27:28;;;;;;;25.60;17.80;;;11.70;76.90;;;;;;6227816;22;20028;-94
2021/04/02 13:30:33;;;;;;;25.83;19.95;;;11.70;77.50;;;;;;6177382;22;21137;-93
2021/04/02 13:58:01;;;;;;;;;;;;;;;;;;;;;
2021/04/02 14:11:40;;;;;;;6.68;4.90;;;8.80;88.20;;;;;;5927373;24;20055;-95
2021/04/02 14:14:19;;;;;;;10.32;5.35;;;8.80;88.90;;;;;;6028187;23;20015;-94
2021/04/02 14:17:01;;;;;;;7.65;4.22;;;8.70;89.40;;;;;;6068595;23;20097;-93
2021/04/02 14:19:33;;;;;;;6.82;4.60;;;8.70;88.50;;;;;;6075807;23;20010;-95
2021/04/02 14:22:36;;;;;;;;;;;;;;;;;;;;;
2021/04/02 14:26:00;;;;;;;;;;;;;;;;;;;;;
2021/04/02 14:29:33;;;;;;;5.47;3.65;;;8.60;88.80;;;;;;6109100;23;20029;-96
2021/04/02 14:35:49;;;;;;;;;;;8.40;89.60;;;;;;6045275;23;20051;-93
2021/04/02 14:38:33;;;;;;;5.13;3.08;;;8.30;90.50;;;;;;6011335;23;19910;-94
2021/04/02 14:41:57;;;;;;;;;;;;;;;;;;;;;
2021/04/02 14:44:53;;;;;;;4.80;3.45;;;8.20;89.70;;;;;;6111739;23;20097;-91
2021/04/02 14:48:48;;;;;;;5.68;3.78;;;8.10;90.40;;;;;;6132759;23;20024;-94
2021/04/02 14:51:15;;;;;;;4.90;3.25;;;8.10;90.20;;;;;;6242215;23;20013;-95
2021/04/02 14:53:48;;;;;;;8.85;3.38;;;8.10;89.60;;;;;;6221644;23;20016;-93
2021/04/02 14:56:47;;;;;;;4.70;3.25;;;8.10;90.10;;;;;;6246528;23;20042;-93
2021/04/02 14:59:30;;;;;;;4.75;3.97;;;8.00;90.20;;;;;;6198092;23;20044;-93
2021/04/02 15:02:10;;;;;;;6.10;3.72;;;7.90;90.50;;;;;;6223394;23;20064;-93
2021/04/02 15:04:39;;;;;;;5.80;3.28;;;7.90;90.30;;;;;;6253057;23;20007;-93
2021/04/02 15:07:12;;;;;;;5.10;3.45;;;7.90;90.30;;;;;;6356887;22;19990;-93
2021/04/02 15:10:03;;;;;;;6.00;3.78;;;7.80;90.40;;;;;;6362658;22;20023;-94
2021/04/02 15:12:45;;;;;;;4.13;3.20;;;7.80;90.50;;;;;;6338716;22;20018;-93
2021/04/02 15:15:59;;;;;;;5.30;3.50;;;7.70;90.40;;;;;;6361206;22;20006;-93
2021/04/02 15:26:19;;;;;;;;;;;;;;;;;;;;;
2021/04/02 15:35:51;;;;;;;;;;;;;;;;;;;;;
2021/04/02 15:41:15;;;;;;;4.53;2.80;;;7.10;91.70;;;;;;6330297;22;20034;-92
2021/04/02 15:43:44;;;;;;;5.53;2.90;;;7.00;91.80;;;;;;6342128;22;20029;-94
2021/04/02 15:46:15;;;;;;;3.47;2.55;;;7.00;91.80;;;;;;6339898;22;20401;-93
2021/04/02 15:48:48;;;;;;;3.88;2.83;;;7.00;91.80;;;;;;6365058;22;20003;-94
2021/04/02 15:51:14;;;;;;;3.47;2.40;;;7.00;91.70;;;;;;6340861;22;20006;-95
2021/04/02 15:53:41;;;;;;;5.63;3.30;;;6.90;91.80;;;;;;6345532;22;19983;-94
2021/04/02 15:56:08;;;;;;;5.10;3.25;;;6.90;91.80;;;;;;6351968;22;20002;-94
2021/04/02 15:58:39;;;;;;;4.65;3.10;;;6.90;91.80;;;;;;6347442;22;20009;-95
2021/04/02 16:01:08;;;;;;;5.82;3.35;;;6.80;91.80;;;;;;6371952;22;20074;-95
2021/04/02 16:04:11;;;;;;;3.70;2.50;;;6.80;91.80;;;;;;6345348;22;20003;-96
2021/04/02 16:07:04;;;;;;;3.80;2.33;;;6.80;91.90;;;;;;6365705;22;20098;-94
2021/04/02 16:09:30;;;;;;;5.45;3.35;;;6.70;91.80;;;;;;6347924;22;20066;-93
2021/04/02 16:12:02;;;;;;;4.63;2.85;;;6.70;91.70;;;;;;6379336;22;20009;-96
2021/04/02 16:14:33;;;;;;;3.50;2.40;;;6.70;91.80;;;;;;6349034;22;20093;-95
2021/04/02 16:16:59;;;;;;;4.32;2.90;;;6.60;91.70;;;;;;6370231;22;20033;-96
2021/04/02 16:19:25;;;;;;;5.75;2.67;;;6.60;91.70;;;;;;6317888;22;20365;-95
2021/04/02 16:21:52;;;;;;;4.25;2.42;;;6.50;91.50;;;;;;6342495;22;20075;-95
2021/04/02 16:24:24;;;;;;;4.15;2.88;;;6.50;91.60;;;;;;6341339;22;20006;-95
2021/04/02 16:26:53;;;;;;;4.20;2.97;;;6.50;91.70;;;;;;6341022;22;20007;-95
2021/04/02 16:29:25;;;;;;;3.92;2.50;;;6.40;91.90;;;;;;6341748;22;20322;-96
2021/04/02 16:31:53;;;;;;;4.15;2.85;;;6.40;91.90;;;;;;6345636;22;20029;-96
2021/04/02 16:34:22;;;;;;;4.88;3.40;;;6.30;92.10;;;;;;6347028;22;20298;-95
2021/04/02 16:36:50;;;;;;;5.78;3.53;;;6.30;92.00;;;;;;6342625;22;19998;-96
2021/04/02 16:39:17;;;;;;;4.88;3.17;;;6.30;92.00;;;;;;6339544;22;19999;-95
2021/04/02 16:41:44;;;;;;;3.67;2.90;;;6.30;92.00;;;;;;6370292;22;20310;-94
2021/04/02 16:44:11;;;;;;;3.40;2.83;;;6.30;91.90;;;;;;6342461;22;20023;-95
2021/04/02 16:46:39;;;;;;;4.82;3.05;;;6.30;92.00;;;;;;6316558;22;20019;-95
2021/04/02 16:49:07;;;;;;;3.75;2.85;;;6.30;92.00;;;;;;6342870;22;19995;-95
2021/04/02 16:51:36;;;;;;;3.92;3.15;;;6.30;92.00;;;;;;6345542;22;20003;-94
2021/04/02 16:54:06;;;;;;;4.20;3.33;;;6.30;92.00;;;;;;6351466;22;20021;-95
2021/04/02 16:56:32;;;;;;;5.35;3.15;;;6.30;91.90;;;;;;6360297;22;20002;-95
2021/04/02 16:58:58;;;;;;;4.25;2.88;;;6.30;91.90;;;;;;6365753;22;20002;-94
2021/04/02 17:01:24;;;;;;;4.68;3.15;;;6.30;91.90;;;;;;6365159;22;19995;-96
2021/04/02 17:03:50;;;;;;;8.38;4.43;;;6.30;91.90;;;;;;6363247;22;20009;-95
2021/04/02 17:06:16;;;;;;;7.50;4.35;;;6.30;91.90;;;;;;6389707;22;20018;-96
2021/04/02 17:08:47;;;;;;;6.90;4.25;;;6.30;92.10;;;;;;6356051;22;20014;-96
2021/04/02 17:11:14;;;;;;;8.02;4.78;;;6.20;92.00;;;;;;6331245;22;20003;-95
2021/04/02 17:13:40;;;;;;;5.95;4.68;;;6.20;92.10;;;;;;6351790;22;20059;-95
2021/04/02 17:16:12;;;;;;;6.13;4.38;;;6.20;92.00;;;;;;6328186;22;20033;-95
2021/04/02 17:18:38;;;;;;;7.82;4.65;;;6.20;92.20;;;;;;6353283;22;20093;-95
2021/04/02 17:21:05;;;;;;;7.55;5.18;;;6.20;92.20;;;;;;6370189;22;19999;-95
2021/04/02 17:23:31;;;;;;;7.50;5.03;;;6.20;92.10;;;;;;6343581;22;20414;-96
2021/04/02 17:25:59;;;;;;;6.88;4.75;;;6.20;92.20;;;;;;6343101;22;20006;-95
2021/04/02 17:28:26;;;;;;;11.20;4.40;;;6.20;92.20;;;;;;6357420;22;20054;-96
2021/04/02 17:30:53;;;;;;;4.35;3.38;;;6.20;92.10;;;;;;6358133;22;20003;-95
2021/04/02 17:33:21;;;;;;;3.92;3.10;;;6.20;92.00;;;;;;6351455;22;20028;-96
2021/04/02 17:35:51;;;;;;;6.40;3.90;;;6.10;91.90;;;;;;6349076;22;20030;-96
2021/04/02 17:38:17;;;;;;;3.83;2.75;;;6.10;91.90;;;;;;6349210;22;20029;-95
2021/04/02 17:40:46;;;;;;;4.18;3.15;;;6.00;91.90;;;;;;6346172;22;20007;-96
2021/04/02 17:43:21;;;;;;;4.32;3.15;;;6.00;92.00;;;;;;6353823;22;19995;-96
2021/04/02 17:45:52;;;;;;;4.57;3.58;;;6.00;92.00;;;;;;6349878;22;20034;-95
2021/04/02 17:48:19;;;;;;;4.10;3.10;;;6.00;92.20;;;;;;6350875;22;20003;-94
2021/04/02 17:50:49;;;;;;;6.30;3.15;;;5.90;92.00;;;;;;6375765;22;20026;-96
2021/04/02 17:53:15;;;;;;;4.50;2.95;;;5.90;92.10;;;;;;6351227;22;20021;-96
2021/04/02 17:55:44;;;;;;;4.50;3.42;;;5.80;92.10;;;;;;6346533;22;20042;-95
2021/04/02 17:58:13;;;;;;;3.42;2.65;;;5.80;92.20;;;;;;6346599;22;20007;-95
2021/04/02 18:00:39;;;;;;;3.85;2.92;;;5.80;92.30;;;;;;6317484;22;20072;-95
2021/04/02 18:03:05;;;;;;;5.43;3.30;;;5.80;92.20;;;;;;6341277;22;19999;-95
2021/04/02 18:05:31;;;;;;;4.65;3.15;;;5.80;92.30;;;;;;6340789;22;19999;-95
2021/04/02 18:08:26;;;;;;;4.55;3.42;;;5.80;92.30;;;;;;6321788;22;20067;-96
2021/04/02 18:11:02;;;;;;;4.72;3.22;;;5.70;92.30;;;;;;6324833;22;20035;-96
2021/04/02 18:13:32;;;;;;;5.32;3.42;;;5.80;92.40;;;;;;6320814;22;20056;-95
2021/04/02 18:16:05;;;;;;;5.18;3.08;;;5.70;92.40;;;;;;6348351;22;20106;-94
2021/04/02 18:18:31;;;;;;;5.05;3.08;;;5.70;92.30;;;;;;6321231;22;20053;-96
2021/04/02 18:20:57;;;;;;;3.80;2.78;;;5.70;92.40;;;;;;6344883;22;20063;-94
2021/04/02 18:23:23;;;;;;;3.60;2.80;;;5.70;92.20;;;;;;6325023;22;19999;-96
2021/04/02 18:25:53;;;;;;;4.00;3.05;;;5.70;92.20;;;;;;6345454;22;20404;-95
2021/04/02 18:28:20;;;;;;;3.60;2.65;;;5.70;92.20;;;;;;6347341;22;20006;-94
2021/04/02 18:30:49;;;;;;;4.10;3.15;;;5.70;92.10;;;;;;6343772;22;19987;-95
2021/04/02 18:33:21;;;;;;;3.63;2.90;;;5.70;92.20;;;;;;6325703;22;19996;-94
2021/04/02 18:35:49;;;;;;;4.13;3.22;;;5.70;92.10;;;;;;6321251;22;20003;-95
2021/04/02 18:38:15;;;;;;;3.65;2.95;;;5.70;92.00;;;;;;6351003;22;20081;-95
2021/04/02 18:40:41;;;;;;;4.55;3.08;;;5.70;92.00;;;;;;6346820;22;19999;-95
2021/04/02 18:43:08;;;;;;;3.88;3.28;;;5.60;92.00;;;;;;6355940;22;20003;-94
2021/04/02 18:45:34;;;;;;;5.35;3.50;;;5.70;92.10;;;;;;6328511;22;20011;-96
2021/04/02 18:48:01;;;;;;;4.57;3.17;;;5.70;92.10;;;;;;6357146;22;20003;-95
2021/04/02 18:50:28;;;;;;;4.50;3.13;;;5.70;92.10;;;;;;6361056;22;19987;-95
2021/04/02 18:52:54;;;;;;;5.15;3.65;;;5.70;92.00;;;;;;6320596;22;20019;-96
2021/04/02 18:55:22;;;;;;;3.88;3.38;;;5.70;92.00;;;;;;6328170;22;20072;-96
2021/04/02 18:57:48;;;;;;;5.68;3.53;;;5.70;92.00;;;;;;6325183;22;20097;-95
2021/04/02 19:00:15;;;;;;;5.63;3.83;;;5.70;92.00;;;;;;6347734;22;20430;-95
2021/04/02 19:02:43;;;;;;;4.53;3.45;;;5.70;91.90;;;;;;6319244;22;19995;-96
2021/04/02 19:05:10;;;;;;;5.32;3.60;;;5.70;91.90;;;;;;6317057;22;20014;-95
2021/04/02 19:07:36;;;;;;;5.80;3.78;;;5.70;91.80;;;;;;6312498;22;19995;-96
2021/04/02 19:10:04;;;;;;;4.80;3.38;;;5.70;91.90;;;;;;6315106;22;20057;-94
2021/04/02 19:12:32;;;;;;;4.40;3.50;;;5.70;91.90;;;;;;6313540;22;20007;-95
2021/04/02 19:14:58;;;;;;;5.22;4.05;;;5.70;91.80;;;;;;6339785;22;20011;-93
2021/04/02 19:17:24;;;;;;;4.97;3.53;;;5.70;91.70;;;;;;6339981;22;20020;-95
2021/04/02 19:19:50;;;;;;;4.72;3.47;;;5.70;91.70;;;;;;6340997;22;19999;-95
2021/04/02 19:22:16;;;;;;;5.80;3.50;;;5.70;91.70;;;;;;6343171;22;20027;-94
2021/04/02 19:24:41;;;;;;;5.82;4.68;;;5.70;91.70;;;;;;6343299;22;19999;-95
2021/04/02 19:27:07;;;;;;;4.40;3.53;;;5.70;91.60;;;;;;6342968;22;20053;-94
2021/04/02 19:29:33;;;;;;;4.63;3.38;;;5.80;91.60;;;;;;6317261;22;20426;-94
2021/04/02 19:31:59;;;;;;;4.78;3.40;;;5.80;91.60;;;;;;6317809;22;20083;-94
2021/04/02 19:34:25;;;;;;;4.75;4.07;;;5.80;91.50;;;;;;6319771;22;20027;-94
2021/04/02 19:36:52;;;;;;;4.97;4.07;;;5.80;91.30;;;;;;6342282;22;20000;-96
2021/04/02 19:39:17;;;;;;;5.05;3.80;;;5.80;91.20;;;;;;6317749;22;20411;-94
2021/04/02 19:41:43;;;;;;;4.55;3.58;;;5.80;91.20;;;;;;6314564;22;20000;-94
2021/04/02 19:44:09;;;;;;;5.30;3.88;;;5.80;91.10;;;;;;6340701;22;20070;-95
2021/04/02 19:46:35;;;;;;;4.28;3.45;;;5.80;91.20;;;;;;6340148;22;20022;-95
2021/04/02 19:49:04;;;;;;;6.15;4.30;;;5.80;91.10;;;;;;6340384;22;20010;-96
2021/04/02 19:51:30;;;;;;;3.08;2.72;;;5.80;91.00;;;;;;6316669;22;19999;-96
2021/04/02 19:53:59;;;;;;;4.30;3.20;;;5.90;91.00;;;;;;6318215;22;20007;-94
2021/04/02 19:56:25;;;;;;;5.40;3.58;;;5.90;90.90;;;;;;6351635;22;19999;-95
2021/04/02 19:58:51;;;;;;;6.18;3.83;;;5.90;90.90;;;;;;6348741;22;19999;-95
2021/04/02 20:01:17;;;;;;;4.40;3.78;;;5.90;90.90;;;;;;6344425;22;19995;-95
2021/04/02 20:03:43;;;;;;;3.72;3.15;;;5.90;90.70;;;;;;6343448;22;20415;-94
2021/04/02 20:06:10;;;;;;;4.32;3.65;;;5.90;90.60;;;;;;6343332;22;20003;-94
2021/04/02 20:08:36;;;;;;;4.80;3.42;;;5.90;90.70;;;;;;6316352;22;19995;-95
2021/04/02 20:11:02;;;;;;;5.70;4.10;;;5.90;90.60;;;;;;6317796;22;20030;-96
2021/04/02 20:13:34;;;;;;;5.00;3.85;;;5.90;90.60;;;;;;6316789;22;20003;-96
2021/04/02 20:16:00;;;;;;;5.63;3.85;;;5.90;90.50;;;;;;6315687;22;20046;-94
2021/04/02 20:18:28;;;;;;;3.88;3.15;;;5.90;90.60;;;;;;6346562;22;20078;-94
2021/04/02 20:20:54;;;;;;;5.30;3.45;;;5.90;90.60;;;;;;6322341;22;20008;-95
2021/04/02 20:23:20;;;;;;;5.03;3.47;;;5.90;90.60;;;;;;6320515;22;19996;-96
2021/04/02 20:25:46;;;;;;;4.45;3.30;;;6.00;90.50;;;;;;6349087;22;20000;-96
2021/04/02 20:28:13;;;;;;;4.32;3.70;;;6.00;90.50;;;;;;6354398;22;19995;-96
2021/04/02 20:30:41;;;;;;;5.45;4.00;;;6.00;90.30;;;;;;6355838;22;20059;-96
2021/04/02 20:33:07;;;;;;;4.97;3.63;;;5.90;90.30;;;;;;6331501;22;19984;-96
2021/04/02 20:35:33;;;;;;;4.35;3.47;;;5.90;90.30;;;;;;6329906;22;20098;-95
2021/04/02 20:37:59;;;;;;;5.15;3.85;;;6.00;90.40;;;;;;6347650;22;20004;-95
2021/04/02 20:40:28;;;;;;;5.05;3.90;;;5.90;90.20;;;;;;6347394;22;20018;-95
2021/04/02 20:42:54;;;;;;;4.72;3.75;;;5.90;90.20;;;;;;6320370;22;20019;-95
2021/04/02 20:45:20;;;;;;;4.45;3.33;;;5.90;90.20;;;;;;6315028;22;20015;-95
2021/04/02 20:47:49;;;;;;;3.95;3.40;;;5.90;90.20;;;;;;6315823;22;20003;-95
2021/04/02 20:50:20;;;;;;;7.10;4.40;;;5.90;90.20;;;;;;6315539;22;20355;-95
2021/04/02 20:52:46;;;;;;;5.18;3.58;;;5.90;90.20;;;;;;6290016;22;20010;-95
2021/04/02 20:55:16;;;;;;;5.13;4.30;;;5.90;90.30;;;;;;6315060;22;20010;-96
2021/04/02 20:57:42;;;;;;;5.45;3.97;;;5.90;90.30;;;;;;6315389;22;20077;-96
2021/04/02 21:00:14;;;;;;;5.75;4.03;;;5.90;90.20;;;;;;6314606;22;19999;-95
2021/04/02 21:02:41;;;;;;;5.55;4.07;;;5.90;90.20;;;;;;6315636;22;20003;-96
2021/04/02 21:05:08;;;;;;;6.15;4.60;;;5.90;90.20;;;;;;6319134;22;20003;-95
2021/04/02 21:07:34;;;;;;;5.45;4.28;;;5.90;90.20;;;;;;6319094;22;20002;-95
2021/04/02 21:10:01;;;;;;;5.47;4.47;;;5.80;90.20;;;;;;6319143;22;19995;-96
2021/04/02 21:12:26;;;;;;;6.15;4.85;;;5.80;90.20;;;;;;6343061;22;20008;-95
2021/04/02 21:14:53;;;;;;;5.80;4.10;;;5.90;90.30;;;;;;6342728;22;20028;-96
2021/04/02 21:17:19;;;;;;;6.53;4.05;;;5.80;90.30;;;;;;6318511;22;20086;-96
2021/04/02 21:19:45;;;;;;;8.05;4.82;;;5.80;90.40;;;;;;6343308;22;20002;-95
2021/04/02 21:22:11;;;;;;;6.72;4.78;;;5.80;90.40;;;;;;6316238;22;19999;-94
2021/04/02 21:24:37;;;;;;;7.55;5.40;;;5.80;90.30;;;;;;6343629;22;19999;-94
2021/04/02 21:27:03;;;;;;;4.90;3.63;;;5.80;90.30;;;;;;6341773;22;20090;-95
2021/04/02 21:29:29;;;;;;;7.05;4.97;;;5.80;90.30;;;;;;6314276;22;20030;-95
2021/04/02 21:31:55;;;;;;;6.90;4.93;;;5.80;90.40;;;;;;6343329;22;20003;-95
2021/04/02 21:34:21;;;;;;;6.90;4.65;;;5.70;90.40;;;;;;6344328;22;20019;-95
2021/04/02 21:36:47;;;;;;;7.22;5.47;;;5.70;90.30;;;;;;6315644;22;19995;-95
2021/04/02 21:39:13;;;;;;;7.18;5.40;;;5.70;90.30;;;;;;6315072;22;20059;-95
2021/04/02 21:41:39;;;;;;;6.25;4.65;;;5.70;90.30;;;;;;6341716;22;20406;-95
2021/04/02 21:44:09;;;;;;;6.13;5.05;;;5.70;90.40;;;;;;6344243;22;20007;-94
2021/04/02 21:46:36;;;;;;;6.47;5.03;;;5.70;90.30;;;;;;6319387;22;20319;-95
2021/04/02 21:49:02;;;;;;;6.57;4.80;;;5.70;90.40;;;;;;6343399;22;20068;-95
2021/04/02 21:51:28;;;;;;;6.35;4.68;;;5.70;90.40;;;;;;6318473;22;20026;-95
2021/04/02 21:53:54;;;;;;;6.03;4.53;;;5.70;90.40;;;;;;6319172;22;20026;-95
2021/04/02 21:56:20;;;;;;;6.13;4.57;;;5.70;90.40;;;;;;6318437;22;20078;-94
2021/04/02 21:58:46;;;;;;;6.78;4.97;;;5.70;90.40;;;;;;6343786;22;20003;-95
2021/04/02 22:01:15;;;;;;;7.85;4.97;;;5.70;90.40;;;;;;6342710;22;20006;-95
2021/04/02 22:03:41;;;;;;;8.27;5.15;;;5.60;90.50;;;;;;6344009;22;19999;-95
2021/04/02 22:06:07;;;;;;;7.38;4.63;;;5.60;90.40;;;;;;6343503;22;20002;-95
2021/04/02 22:08:34;;;;;;;6.60;5.90;;;5.60;90.60;;;;;;6325952;22;19995;-94
2021/04/02 22:11:02;;;;;;;5.93;4.82;;;5.60;90.40;;;;;;6322639;22;20098;-95